createdAt,value
2023-04-12T00:01:13.836Z,98782.84
2023-04-12T00:03:40.434Z,98780.25
2023-04-12T00:06:07.408Z,98769.63
2023-04-12T00:08:34.146Z,98773.56
2023-04-12T00:11:02.184Z,98767.69
2023-04-12T00:13:29.751Z,98761.72
2023-04-12T00:15:56.097Z,98749.22
2023-04-12T00:18:22.523Z,98743.72
2023-04-12T00:20:49.010Z,98752.56
2023-04-12T00:23:15.427Z,98746.91
2023-04-12T00:25:41.722Z,98741.09
2023-04-12T00:28:08.033Z,98717.91
2023-04-12T00:30:34.431Z,98726.34
2023-04-12T00:33:00.788Z,98723.91
2023-04-12T00:35:27.178Z,98709.81
2023-04-12T00:37:53.616Z,98702.13
2023-04-12T00:40:20.024Z,98709.03
2023-04-12T00:42:46.443Z,98702.13
2023-04-12T00:45:14.368Z,98688.22
2023-04-12T00:47:41.408Z,98684.63
2023-04-12T00:50:08.451Z,98704.19
2023-04-12T00:52:35.169Z,98688.81
2023-04-12T00:55:04.263Z,98694.59
2023-04-12T00:57:35.783Z,98673.22
2023-04-12T01:00:03.446Z,98681.66
2023-04-12T01:02:30.082Z,98662.31
2023-04-12T01:04:57.381Z,98666.88
2023-04-12T01:07:47.511Z,98665.22
2023-04-12T01:10:22.608Z,98668.56
2023-04-12T01:13:07.153Z,98664.91
2023-04-12T01:15:39.600Z,98652.88
2023-04-12T01:18:09.210Z,98657.94
2023-04-12T01:20:40.440Z,98654.41
2023-04-12T01:23:34.552Z,98650.66
2023-04-12T01:26:17.095Z,98644.47
2023-04-12T01:28:45.651Z,98641.94
2023-04-12T01:31:13.532Z,98638.44
2023-04-12T01:33:43.506Z,98628.22
2023-04-12T01:36:21.241Z,98629.69
2023-04-12T01:38:48.917Z,98634.66
2023-04-12T01:41:15.927Z,98621.72
2023-04-12T01:43:46.994Z,98623.84
2023-04-12T01:46:15.871Z,98617.75
2023-04-12T01:48:48.460Z,98616.03
2023-04-12T01:51:25.253Z,98599.44
2023-04-12T01:53:59.969Z,98603.34
2023-04-12T01:56:31.591Z,98586.00
2023-04-12T01:58:59.494Z,98588.47
2023-04-12T02:01:26.093Z,98582.34
2023-04-12T02:03:53.783Z,98573.47
2023-04-12T02:06:22.990Z,98569.91
2023-04-12T02:08:49.719Z,98581.34
2023-04-12T02:11:16.023Z,98568.69
2023-04-12T02:13:42.452Z,98567.84
2023-04-12T02:16:08.992Z,98551.47
2023-04-12T02:18:35.333Z,98553.84
2023-04-12T02:21:01.816Z,98553.06
2023-04-12T02:23:28.247Z,98540.81
2023-04-12T02:25:54.549Z,98535.44
2023-04-12T02:28:20.926Z,98534.81
2023-04-12T02:30:47.256Z,98519.34
2023-04-12T02:33:14.086Z,98505.81
2023-04-12T02:35:40.436Z,98515.81
2023-04-12T02:38:06.992Z,98507.47
2023-04-12T02:40:43.087Z,98504.34
2023-04-12T02:43:10.038Z,98488.88
2023-04-12T02:45:36.417Z,98491.59
2023-04-12T02:48:02.838Z,98489.31
2023-04-12T02:50:29.345Z,98494.28
2023-04-12T02:52:55.652Z,98491.91
2023-04-12T02:55:22.315Z,98509.66
2023-04-12T02:57:48.648Z,98503.47
2023-04-12T03:00:15.317Z,98497.19
2023-04-12T03:02:42.512Z,98468.75
2023-04-12T03:05:09.543Z,98483.19
2023-04-12T03:07:36.710Z,98480.34
2023-04-12T03:10:03.422Z,98483.97
2023-04-12T03:12:29.719Z,98475.53
2023-04-12T03:14:56.423Z,98472.78
2023-04-12T03:17:23.013Z,98470.09
2023-04-12T03:19:49.412Z,98463.97
2023-04-12T03:22:16.092Z,98471.53
2023-04-12T03:24:42.448Z,98453.47
2023-04-12T03:27:08.888Z,98450.53
2023-04-12T03:29:35.280Z,98454.28
2023-04-12T03:32:01.597Z,98459.34
2023-04-12T03:34:28.488Z,98450.69
2023-04-12T03:36:55.145Z,98453.03
2023-04-12T03:39:21.874Z,98445.31
2023-04-12T03:41:48.293Z,98448.56
2023-04-12T03:44:14.743Z,98456.22
2023-04-12T03:46:41.207Z,98435.53
2023-04-12T03:49:07.689Z,98445.78
2023-04-12T03:51:34.025Z,98426.31
2023-04-12T03:54:00.425Z,98431.69
2023-04-12T03:56:26.819Z,98416.38
2023-04-12T03:58:53.294Z,98432.44
2023-04-12T04:01:19.847Z,98418.06
2023-04-12T04:03:46.683Z,98419.47
2023-04-12T04:06:13.362Z,98424.03
2023-04-12T04:08:39.703Z,98419.41
2023-04-12T04:11:08.478Z,98404.53
2023-04-12T04:13:35.566Z,98395.09
2023-04-12T04:16:06.877Z,98401.50
2023-04-12T04:18:33.323Z,98393.84
2023-04-12T04:20:59.709Z,98408.31
2023-04-12T04:23:26.350Z,98403.94
2023-04-12T04:25:52.720Z,98393.50
2023-04-12T04:28:19.200Z,98398.09
2023-04-12T04:30:45.762Z,98382.06
2023-04-12T04:33:12.878Z,98373.28
2023-04-12T04:35:40.335Z,98373.88
2023-04-12T04:38:06.754Z,98371.69
2023-04-12T04:40:33.152Z,98374.47
2023-04-12T04:42:59.648Z,98376.97
2023-04-12T04:45:26.701Z,98376.97
2023-04-12T04:47:53.918Z,98378.69
2023-04-12T04:50:24.396Z,98370.13
2023-04-12T04:52:51.231Z,98350.53
2023-04-12T04:55:18.245Z,98344.97
2023-04-12T04:57:44.814Z,98354.22
2023-04-12T05:00:12.587Z,98352.00
2023-04-12T05:02:39.210Z,98358.81
2023-04-12T05:05:10.493Z,98357.13
2023-04-12T05:07:36.814Z,98344.94
2023-04-12T05:10:04.746Z,98344.25
2023-04-12T05:12:31.180Z,98323.19
2023-04-12T05:15:10.628Z,98330.06
2023-04-12T05:17:37.972Z,98318.78
2023-04-12T05:20:04.931Z,98305.16
2023-04-12T05:22:31.534Z,98294.69
2023-04-12T05:24:58.273Z,98291.50
2023-04-12T05:27:24.644Z,98300.06
2023-04-12T05:29:50.968Z,98293.53
2023-04-12T05:32:17.721Z,98298.38
2023-04-12T05:34:44.037Z,98299.66
2023-04-12T05:37:10.792Z,98296.13
2023-04-12T05:39:37.196Z,98269.78
2023-04-12T05:42:04.137Z,98272.19
2023-04-12T05:44:31.216Z,98265.19
2023-04-12T05:46:57.651Z,98266.31
2023-04-12T05:49:23.951Z,98259.78
2023-04-12T05:51:50.488Z,98251.00
2023-04-12T05:54:16.838Z,98257.81
2023-04-12T05:56:43.516Z,98253.63
2023-04-12T05:59:09.895Z,98258.50
2023-04-12T06:01:36.617Z,98252.00
2023-04-12T06:04:03.264Z,98244.69
2023-04-12T06:06:29.926Z,98245.31
2023-04-12T06:08:57.940Z,98235.84
2023-04-12T06:11:24.424Z,98216.00
2023-04-12T06:13:50.821Z,98196.00
2023-04-12T06:16:17.242Z,98220.13
2023-04-12T06:18:43.833Z,98216.94
2023-04-12T06:21:10.345Z,98201.47
2023-04-12T06:23:36.805Z,98203.44
2023-04-12T06:26:03.387Z,98208.25
2023-04-12T06:28:29.864Z,98177.66
2023-04-12T06:30:56.330Z,98191.97
2023-04-12T06:33:22.691Z,98187.81
2023-04-12T06:35:50.641Z,98166.06
2023-04-12T06:38:18.208Z,98167.22
2023-04-12T06:40:44.888Z,98160.66
2023-04-12T06:43:12.470Z,98158.03
2023-04-12T06:45:38.773Z,98169.03
2023-04-12T06:48:05.328Z,98156.03
2023-04-12T06:50:31.817Z,98142.63
2023-04-12T06:52:58.188Z,98141.56
2023-04-12T06:55:25.694Z,98129.75
2023-04-12T06:57:52.033Z,98132.75
2023-04-12T07:00:19.146Z,98137.63
2023-04-12T07:02:45.611Z,98119.38
2023-04-12T07:05:14.242Z,98127.25
2023-04-12T07:07:40.626Z,98111.63
2023-04-12T07:10:07.731Z,98130.81
2023-04-12T07:12:34.464Z,98109.47
2023-04-12T07:15:00.841Z,98109.47
2023-04-12T07:17:27.560Z,98124.38
2023-04-12T07:19:54.850Z,98101.34
2023-04-12T07:22:21.207Z,98112.00
2023-04-12T07:24:49.326Z,98098.47
2023-04-12T07:27:15.755Z,98076.91
2023-04-12T07:29:42.297Z,98081.03
2023-04-12T07:32:10.263Z,98079.75
2023-04-12T07:34:37.486Z,98064.72
2023-04-12T07:37:04.112Z,98061.84
2023-04-12T07:39:30.574Z,98063.06
2023-04-12T07:41:57.545Z,98060.31
2023-04-12T07:44:23.892Z,98035.78
2023-04-12T07:46:50.204Z,98035.94
2023-04-12T07:49:16.883Z,98034.47
2023-04-12T07:51:44.653Z,98046.41
2023-04-12T07:54:11.340Z,98036.97
2023-04-12T07:56:37.673Z,98062.63
2023-04-12T07:59:04.091Z,98033.72
2023-04-12T08:01:30.472Z,98032.38
2023-04-12T08:03:57.480Z,98017.94
2023-04-12T08:06:24.024Z,98017.78
2023-04-12T08:08:50.442Z,98005.78
2023-04-12T08:11:16.935Z,97992.63
2023-04-12T08:13:43.286Z,98014.22
2023-04-12T08:16:10.015Z,97987.78
2023-04-12T08:18:36.692Z,97996.88
2023-04-12T08:21:03.418Z,98000.78
2023-04-12T08:23:29.884Z,98001.75
2023-04-12T08:25:56.337Z,97985.69
2023-04-12T08:28:22.868Z,97996.38
2023-04-12T08:30:49.522Z,98004.47
2023-04-12T08:33:15.860Z,98003.16
2023-04-12T08:35:42.662Z,98029.47
2023-04-12T08:38:09.003Z,97986.78
2023-04-12T08:40:35.622Z,97997.38
2023-04-12T08:43:02.829Z,97989.41
2023-04-12T08:45:29.990Z,98003.00
2023-04-12T08:47:57.301Z,97980.72
2023-04-12T08:50:25.314Z,97976.03
2023-04-12T08:52:52.278Z,97982.50
2023-04-12T08:55:19.795Z,97959.69
2023-04-12T08:57:47.807Z,97968.28
2023-04-12T09:00:15.776Z,97965.06
2023-04-12T09:02:42.632Z,97943.63
2023-04-12T09:05:10.093Z,97941.09
2023-04-12T09:07:36.893Z,97945.34
2023-04-12T09:10:05.505Z,97924.25
2023-04-12T09:12:31.994Z,97930.69
2023-04-12T09:15:10.996Z,97929.06
2023-04-12T09:17:37.386Z,97896.78
2023-04-12T09:20:14.543Z,97916.53
2023-04-12T09:22:40.912Z,97889.84
2023-04-12T09:25:07.971Z,97892.41
2023-04-12T09:27:48.120Z,97889.59
2023-04-12T09:30:19.200Z,97895.78
2023-04-12T09:32:46.199Z,97885.41
2023-04-12T09:35:12.929Z,97880.16
2023-04-12T09:37:39.417Z,97874.88
2023-04-12T09:40:07.976Z,97880.94
2023-04-12T09:42:36.425Z,97845.97
2023-04-12T09:45:23.211Z,97865.69
2023-04-12T09:47:50.399Z,97847.59
2023-04-12T09:50:21.789Z,97843.75
2023-04-12T09:52:48.386Z,97857.63
2023-04-12T09:55:15.884Z,97853.97
2023-04-12T09:57:43.717Z,97856.13
2023-04-12T10:00:14.117Z,97845.72
2023-04-12T10:02:45.024Z,97833.41
2023-04-12T10:05:14.529Z,97828.50
2023-04-12T10:07:41.662Z,97819.78
2023-04-12T10:10:09.518Z,97819.53
2023-04-12T10:12:36.931Z,97814.53
2023-04-12T10:15:07.896Z,97813.50
2023-04-12T10:17:35.504Z,97799.38
2023-04-12T10:20:03.206Z,97787.47
2023-04-12T10:22:29.556Z,97787.91
2023-04-12T10:24:57.117Z,97795.38
2023-04-12T10:27:27.248Z,97776.66
2023-04-12T10:29:54.523Z,97790.13
2023-04-12T10:32:22.537Z,97785.25
2023-04-12T10:34:58.118Z,97761.72
2023-04-12T10:38:00.768Z,97777.63
2023-04-12T10:40:28.355Z,97768.91
2023-04-12T10:43:25.095Z,97761.72
2023-04-12T10:45:51.433Z,97752.44
2023-04-12T10:48:30.439Z,97752.31
2023-04-12T10:51:20.081Z,97750.19
2023-04-12T10:53:49.772Z,97756.59
2023-04-12T10:56:32.522Z,97754.38
2023-04-12T10:59:04.469Z,97756.03
2023-04-12T11:01:31.965Z,97739.41
2023-04-12T11:04:17.243Z,97740.66
2023-04-12T11:06:56.782Z,97748.97
2023-04-12T11:09:33.992Z,97740.75
2023-04-12T11:12:08.109Z,97742.66
2023-04-12T11:14:47.326Z,97740.69
2023-04-12T11:17:13.745Z,97738.63
2023-04-12T11:19:43.048Z,97733.09
2023-04-12T11:22:11.380Z,97748.63
2023-04-12T11:24:43.694Z,97728.03
2023-04-12T11:27:10.870Z,97717.78
2023-04-12T11:29:37.243Z,97737.16
2023-04-12T11:32:04.891Z,97721.06
2023-04-12T11:34:36.090Z,97705.38
2023-04-12T11:37:04.038Z,97710.59
2023-04-12T11:39:32.026Z,97701.34
2023-04-12T11:42:00.152Z,97697.81
2023-04-12T11:44:26.887Z,97686.78
2023-04-12T11:46:54.140Z,97683.53
2023-04-12T11:49:21.470Z,97692.69
2023-04-12T11:51:49.661Z,97694.31
2023-04-12T11:54:16.175Z,97683.16
2023-04-12T11:56:42.516Z,97698.38
2023-04-12T11:59:09.651Z,97679.53
2023-04-12T12:01:36.616Z,97687.00
2023-04-12T12:04:03.954Z,97678.81
2023-04-12T12:06:31.848Z,97674.16
2023-04-12T12:08:58.804Z,97667.50
2023-04-12T12:11:25.357Z,97670.41
2023-04-12T12:13:56.058Z,97674.97
2023-04-12T12:16:27.874Z,97655.16
2023-04-12T12:18:54.849Z,97656.38
2023-04-12T12:21:21.696Z,97654.41
2023-04-12T12:23:49.396Z,97648.22
2023-04-12T12:26:25.022Z,97634.94
2023-04-12T12:28:53.109Z,97641.41
2023-04-12T12:31:24.505Z,97622.72
2023-04-12T12:33:59.038Z,97635.72
2023-04-12T12:36:36.918Z,97612.47
2023-04-12T12:39:07.914Z,97607.81
2023-04-12T12:41:34.776Z,97617.00
2023-04-12T12:44:01.214Z,97613.41
2023-04-12T12:46:37.365Z,97615.91
2023-04-12T12:49:14.196Z,97614.38
2023-04-12T12:51:42.182Z,97607.00
2023-04-12T12:54:08.608Z,97592.72
2023-04-12T12:56:35.736Z,97578.56
2023-04-12T12:59:03.162Z,97590.78
2023-04-12T13:01:30.132Z,97584.16
2023-04-12T13:03:56.654Z,97571.16
2023-04-12T13:06:23.474Z,97594.94
2023-04-12T13:08:49.980Z,97597.56
2023-04-12T13:11:17.934Z,97585.31
2023-04-12T13:13:44.804Z,97602.19
2023-04-12T13:16:11.255Z,97579.66
2023-04-12T13:18:37.810Z,97594.25
2023-04-12T13:21:04.254Z,97586.19
2023-04-12T13:23:30.576Z,97583.28
2023-04-12T13:25:56.990Z,97575.94
2023-04-12T13:28:23.421Z,97577.44
2023-04-12T13:30:49.758Z,97579.16
2023-04-12T13:33:19.990Z,97583.75
2023-04-12T13:35:47.774Z,97584.06
2023-04-12T13:38:14.213Z,97564.03
2023-04-12T13:40:42.111Z,97563.19
2023-04-12T13:43:08.461Z,97573.28
2023-04-12T13:45:34.890Z,97548.34
2023-04-12T13:48:02.021Z,97544.94
2023-04-12T13:50:28.488Z,97538.56
2023-04-12T13:52:54.826Z,97540.09
2023-04-12T13:55:21.403Z,97532.66
2023-04-12T13:57:47.765Z,97528.66
2023-04-12T14:00:14.836Z,97529.34
2023-04-12T14:02:41.255Z,97523.50
2023-04-12T14:05:08.438Z,97499.31
2023-04-12T14:07:35.317Z,97525.25
2023-04-12T14:10:01.877Z,97523.28
2023-04-12T14:12:28.189Z,97523.81
2023-04-12T14:14:54.745Z,97517.72
2023-04-12T14:17:21.321Z,97522.34
2023-04-12T14:19:47.743Z,97514.66
2023-04-12T14:22:14.308Z,97513.19
2023-04-12T14:24:40.711Z,97499.97
2023-04-12T14:27:07.149Z,97526.31
2023-04-12T14:29:34.166Z,97519.28
2023-04-12T14:32:00.613Z,97512.63
2023-04-12T14:34:26.957Z,97541.28
2023-04-12T14:36:53.991Z,97500.63
2023-04-12T14:39:20.305Z,97507.41
2023-04-12T14:41:46.725Z,97508.28
2023-04-12T14:44:13.026Z,97498.78
2023-04-12T14:46:39.744Z,97489.31
2023-04-12T14:49:06.435Z,97499.66
2023-04-12T14:51:32.736Z,97494.44
2023-04-12T14:53:59.251Z,97493.78
2023-04-12T14:56:29.798Z,97516.88
2023-04-12T14:58:57.617Z,97497.88
2023-04-12T15:01:25.565Z,97501.38
2023-04-12T15:03:53.139Z,97500.13
2023-04-12T15:06:23.511Z,97511.41
2023-04-12T15:08:53.625Z,97502.66
2023-04-12T15:11:20.656Z,97502.66
2023-04-12T15:13:46.956Z,97494.16
2023-04-12T15:16:13.320Z,97487.34
2023-04-12T15:18:39.932Z,97485.66
2023-04-12T15:21:11.136Z,97482.13
2023-04-12T15:23:38.839Z,97476.81
2023-04-12T15:26:05.742Z,97468.28
2023-04-12T15:28:33.224Z,97469.88
2023-04-12T15:30:59.536Z,97448.72
2023-04-12T15:33:25.971Z,97468.94
2023-04-12T15:35:53.592Z,97478.25
2023-04-12T15:38:23.393Z,97464.75
2023-04-12T15:40:55.349Z,97453.84
2023-04-12T15:43:22.728Z,97458.91
2023-04-12T15:45:49.585Z,97463.25
2023-04-12T15:48:16.187Z,97453.69
2023-04-12T15:50:42.591Z,97460.75
2023-04-12T15:53:08.903Z,97473.97
2023-04-12T15:55:35.448Z,97480.41
2023-04-12T15:58:01.921Z,97472.53
2023-04-12T16:00:28.600Z,97467.47
2023-04-12T16:02:55.223Z,97480.75
2023-04-12T16:05:21.997Z,97479.91
2023-04-12T16:07:48.337Z,97466.25
2023-04-12T16:10:14.664Z,97472.88
2023-04-12T16:12:41.000Z,97479.06
2023-04-12T16:15:07.815Z,97480.69
2023-04-12T16:17:34.171Z,97480.09
2023-04-12T16:20:00.774Z,97480.41
2023-04-12T16:22:27.159Z,97444.53
2023-04-12T16:24:53.520Z,97443.84
2023-04-12T16:27:21.710Z,97447.72
2023-04-12T16:29:49.870Z,97466.34
2023-04-12T16:32:16.249Z,97479.00
2023-04-12T16:34:42.604Z,97468.09
2023-04-12T16:37:09.182Z,97475.13
2023-04-12T16:39:35.567Z,97465.31
2023-04-12T16:42:01.913Z,97486.69
2023-04-12T16:44:28.468Z,97475.91
2023-04-12T16:46:54.928Z,97466.00
2023-04-12T16:49:21.333Z,97483.72
2023-04-12T16:51:49.527Z,97481.34
2023-04-12T16:54:15.961Z,97492.44
2023-04-12T16:56:42.363Z,97484.25
2023-04-12T16:59:08.786Z,97489.41
2023-04-12T17:01:35.370Z,97497.03
2023-04-12T17:04:02.483Z,97476.09
2023-04-12T17:06:29.338Z,97479.03
2023-04-12T17:08:56.252Z,97468.22
2023-04-12T17:11:22.824Z,97495.88
2023-04-12T17:13:49.236Z,97553.63
2023-04-12T17:16:15.627Z,97582.03
2023-04-12T17:18:42.127Z,97585.66
2023-04-12T17:21:08.632Z,97593.63
2023-04-12T17:23:35.586Z,97609.28
2023-04-12T17:26:02.963Z,97606.66
2023-04-12T17:28:29.770Z,97598.91
2023-04-12T17:30:56.347Z,97604.06
2023-04-12T17:33:22.764Z,97600.84
2023-04-12T17:35:49.129Z,97588.66
2023-04-12T17:38:15.509Z,97591.00
2023-04-12T17:40:41.839Z,97573.97
2023-04-12T17:43:08.228Z,97592.06
2023-04-12T17:45:34.637Z,97593.84
2023-04-12T17:48:01.077Z,97597.41
2023-04-12T17:50:27.858Z,97587.47
2023-04-12T17:52:54.236Z,97574.72
2023-04-12T17:55:20.684Z,97581.66
2023-04-12T17:57:47.043Z,97567.25
2023-04-12T18:00:14.054Z,97552.84
2023-04-12T18:02:40.785Z,97571.38
2023-04-12T18:05:07.614Z,97559.06
2023-04-12T18:07:34.083Z,97577.84
2023-04-12T18:10:00.452Z,97569.00
2023-04-12T18:12:26.812Z,97567.06
2023-04-12T18:14:53.317Z,97567.59
2023-04-12T18:17:19.828Z,97570.31
2023-04-12T18:19:46.204Z,97567.38
2023-04-12T18:22:12.650Z,97569.31
2023-04-12T18:24:39.018Z,97569.56
2023-04-12T18:27:10.588Z,97564.66
2023-04-12T18:29:37.178Z,97577.75
2023-04-12T18:32:03.528Z,97570.41
2023-04-12T18:34:30.282Z,97578.59
2023-04-12T18:36:56.646Z,97588.75
2023-04-12T18:39:23.149Z,97573.53
2023-04-12T18:41:49.573Z,97582.53
2023-04-12T18:44:15.932Z,97587.91
2023-04-12T18:46:42.318Z,97592.53
2023-04-12T18:49:08.748Z,97606.28
2023-04-12T18:51:35.341Z,97594.53
2023-04-12T18:54:01.922Z,97608.47
2023-04-12T18:56:28.339Z,97611.59
2023-04-12T18:58:56.451Z,97629.50
2023-04-12T19:01:24.282Z,97630.81
2023-04-12T19:03:50.875Z,97626.09
2023-04-12T19:06:17.456Z,97632.41
2023-04-12T19:08:43.905Z,97633.81
2023-04-12T19:11:10.271Z,97628.63
2023-04-12T19:13:36.599Z,97643.63
2023-04-12T19:16:03.122Z,97639.13
2023-04-12T19:18:29.478Z,97633.28
2023-04-12T19:20:56.417Z,97655.91
2023-04-12T19:23:23.047Z,97656.84
2023-04-12T19:25:49.347Z,97664.13
2023-04-12T19:28:15.711Z,97659.63
2023-04-12T19:30:42.080Z,97687.59
2023-04-12T19:33:08.547Z,97685.66
2023-04-12T19:35:34.919Z,97689.34
2023-04-12T19:38:02.275Z,97686.03
2023-04-12T19:40:30.943Z,97682.13
2023-04-12T19:42:57.521Z,97695.25
2023-04-12T19:45:24.220Z,97716.72
2023-04-12T19:47:50.692Z,97765.03
2023-04-12T19:50:17.155Z,97787.47
2023-04-12T19:52:44.191Z,97803.78
2023-04-12T19:55:11.145Z,97799.84
2023-04-12T19:57:38.477Z,97807.63
2023-04-12T20:00:09.632Z,97801.66
2023-04-12T20:02:36.195Z,97796.25
2023-04-12T20:05:04.133Z,97802.94
2023-04-12T20:07:30.483Z,97815.88
2023-04-12T20:09:56.824Z,97819.22
2023-04-12T20:12:23.179Z,97819.44
2023-04-12T20:14:49.560Z,97817.53
2023-04-12T20:17:15.910Z,97822.38
2023-04-12T20:19:42.245Z,97798.75
2023-04-12T20:22:08.624Z,97806.00
2023-04-12T20:24:34.996Z,97795.25
2023-04-12T20:27:02.112Z,97793.34
2023-04-12T20:29:32.567Z,97794.06
2023-04-12T20:31:59.043Z,97793.09
2023-04-12T20:34:25.373Z,97814.03
2023-04-12T20:36:52.010Z,97811.94
2023-04-12T20:39:18.422Z,97816.84
2023-04-12T20:41:44.952Z,97813.75
2023-04-12T20:44:11.255Z,97802.19
2023-04-12T20:46:38.831Z,97815.38
2023-04-12T20:49:05.313Z,97815.03
2023-04-12T20:51:31.748Z,97814.09
2023-04-12T20:53:58.447Z,97815.03
2023-04-12T20:56:25.699Z,97811.59
2023-04-12T20:58:52.250Z,97796.22
2023-04-12T21:01:18.700Z,97789.44
2023-04-12T21:03:45.255Z,97768.84
2023-04-12T21:06:11.736Z,97780.13
2023-04-12T21:08:38.383Z,97800.50
2023-04-12T21:11:04.937Z,97807.88
2023-04-12T21:13:31.383Z,97810.94
2023-04-12T21:15:57.772Z,97814.00
2023-04-12T21:18:24.102Z,97800.25
2023-04-12T21:20:50.599Z,97796.53
2023-04-12T21:23:18.081Z,97815.91
2023-04-12T21:25:47.673Z,97812.38
2023-04-12T21:28:15.290Z,97816.66
2023-04-12T21:30:42.235Z,97794.22
2023-04-12T21:33:08.671Z,97820.75
2023-04-12T21:35:35.274Z,97777.25
2023-04-12T21:38:02.576Z,97799.06
2023-04-12T21:40:29.094Z,97824.25
2023-04-12T21:42:55.453Z,97832.19
2023-04-12T21:45:21.995Z,97818.91
2023-04-12T21:47:48.553Z,97815.81
2023-04-12T21:50:14.914Z,97827.28
2023-04-12T21:52:41.338Z,97827.63
2023-04-12T21:55:08.000Z,97799.56
2023-04-12T21:57:35.290Z,97833.59
2023-04-12T22:00:02.558Z,97817.31
2023-04-12T22:02:29.200Z,97832.75
2023-04-12T22:04:55.822Z,97830.66
2023-04-12T22:07:22.492Z,97834.13
2023-04-12T22:09:50.378Z,97841.41
2023-04-12T22:12:16.711Z,97840.59
2023-04-12T22:14:44.743Z,97837.25
2023-04-12T22:17:11.614Z,97831.94
2023-04-12T22:19:38.330Z,97833.34
2023-04-12T22:22:04.708Z,97839.72
2023-04-12T22:24:31.054Z,97845.56
2023-04-12T22:26:57.509Z,97851.84
2023-04-12T22:29:25.049Z,97855.47
2023-04-12T22:31:51.396Z,97854.31
2023-04-12T22:34:17.759Z,97848.56
2023-04-12T22:36:44.217Z,97856.38
2023-04-12T22:39:10.710Z,97861.50
2023-04-12T22:41:37.032Z,97871.84
2023-04-12T22:44:04.186Z,97873.88
2023-04-12T22:46:30.665Z,97870.97
2023-04-12T22:48:57.431Z,97867.16
2023-04-12T22:51:23.848Z,97872.69
2023-04-12T22:53:50.143Z,97870.38
2023-04-12T22:56:16.673Z,97865.63
2023-04-12T22:58:43.071Z,97853.50
2023-04-12T23:01:09.534Z,97870.63
2023-04-12T23:03:36.439Z,97872.69
2023-04-12T23:06:03.035Z,97853.38
2023-04-12T23:08:29.666Z,97861.00
2023-04-12T23:10:56.516Z,97853.44
2023-04-12T23:13:22.816Z,97867.75
2023-04-12T23:15:49.238Z,97855.50
2023-04-12T23:18:15.558Z,97859.50
2023-04-12T23:20:41.999Z,97852.63
2023-04-12T23:23:08.359Z,97839.34
2023-04-12T23:25:35.125Z,97856.63
2023-04-12T23:28:01.534Z,97848.34
2023-04-12T23:30:27.938Z,97858.75
2023-04-12T23:32:54.363Z,97850.84
2023-04-12T23:35:20.818Z,97857.34
2023-04-12T23:37:47.177Z,97857.53
2023-04-12T23:40:13.834Z,97865.34
2023-04-12T23:42:40.363Z,97849.19
2023-04-12T23:45:07.612Z,97854.09
2023-04-12T23:47:34.044Z,97865.53
2023-04-12T23:50:00.503Z,97859.56
2023-04-12T23:52:26.848Z,97865.34
2023-04-12T23:54:53.244Z,97847.41
2023-04-12T23:57:19.537Z,97852.31
2023-04-12T23:59:46.052Z,97854.09
